sensor_id;sensor_type;location;lat;lon;timestamp;temperature;humidity
37324;DHT22;23205;49.986;18.950;2022-07-17T00:02:17;12.70;99.90
37324;DHT22;23205;49.986;18.950;2022-07-17T00:07:19;12.60;99.90
37324;DHT22;23205;49.986;18.950;2022-07-17T00:12:20;12.70;99.90
37324;DHT22;23205;49.986;18.950;2022-07-17T00:17:21;12.60;99.90
37324;DHT22;23205;49.986;18.950;2022-07-17T00:22:22;12.50;99.90
37324;DHT22;23205;49.986;18.950;2022-07-17T00:27:22;12.60;99.90
37324;DHT22;23205;49.986;18.950;2022-07-17T00:32:23;12.60;99.90
37324;DHT22;23205;49.986;18.950;2022-07-17T00:37:24;12.50;99.90
37324;DHT22;23205;49.986;18.950;2022-07-17T00:42:25;12.30;99.90
37324;DHT22;23205;49.986;18.950;2022-07-17T00:47:26;12.20;99.90
37324;DHT22;23205;49.986;18.950;2022-07-17T00:52:27;12.00;99.90
37324;DHT22;23205;49.986;18.950;2022-07-17T00:57:28;12.00;99.90
37324;DHT22;23205;49.986;18.950;2022-07-17T01:02:30;12.00;99.90
37324;DHT22;23205;49.986;18.950;2022-07-17T01:07:32;11.90;99.90
37324;DHT22;23205;49.986;18.950;2022-07-17T01:12:33;11.80;99.90
37324;DHT22;23205;49.986;18.950;2022-07-17T01:17:35;11.80;99.90
37324;DHT22;23205;49.986;18.950;2022-07-17T01:22:43;11.80;99.90
37324;DHT22;23205;49.986;18.950;2022-07-17T01:27:44;11.70;99.90
37324;DHT22;23205;49.986;18.950;2022-07-17T01:32:45;11.70;99.90
37324;DHT22;23205;49.986;18.950;2022-07-17T01:37:46;11.70;99.90
37324;DHT22;23205;49.986;18.950;2022-07-17T01:42:49;11.70;99.90
37324;DHT22;23205;49.986;18.950;2022-07-17T01:47:50;11.60;99.90
37324;DHT22;23205;49.986;18.950;2022-07-17T01:52:51;11.60;99.90
37324;DHT22;23205;49.986;18.950;2022-07-17T01:57:51;11.50;99.90
37324;DHT22;23205;49.986;18.950;2022-07-17T02:02:53;11.50;99.90
37324;DHT22;23205;49.986;18.950;2022-07-17T02:07:54;11.40;99.90
37324;DHT22;23205;49.986;18.950;2022-07-17T02:12:54;11.30;99.90
37324;DHT22;23205;49.986;18.950;2022-07-17T02:17:56;11.30;99.90
37324;DHT22;23205;49.986;18.950;2022-07-17T02:22:57;11.20;99.90
37324;DHT22;23205;49.986;18.950;2022-07-17T02:27:58;11.30;99.90
37324;DHT22;23205;49.986;18.950;2022-07-17T02:32:59;11.20;99.90
37324;DHT22;23205;49.986;18.950;2022-07-17T02:38:00;11.20;99.90
37324;DHT22;23205;49.986;18.950;2022-07-17T02:43:01;11.20;99.90
37324;DHT22;23205;49.986;18.950;2022-07-17T02:48:02;11.20;99.90
37324;DHT22;23205;49.986;18.950;2022-07-17T02:53:03;11.10;99.90
37324;DHT22;23205;49.986;18.950;2022-07-17T02:58:04;11.10;99.90
37324;DHT22;23205;49.986;18.950;2022-07-17T03:03:04;11.10;99.90
37324;DHT22;23205;49.986;18.950;2022-07-17T03:08:05;11.10;99.90
37324;DHT22;23205;49.986;18.950;2022-07-17T03:13:06;11.10;99.90
37324;DHT22;23205;49.986;18.950;2022-07-17T03:18:07;11.10;99.90
37324;DHT22;23205;49.986;18.950;2022-07-17T03:23:08;11.10;99.90
37324;DHT22;23205;49.986;18.950;2022-07-17T03:28:09;11.10;99.90
37324;DHT22;23205;49.986;18.950;2022-07-17T03:33:10;11.10;99.90
37324;DHT22;23205;49.986;18.950;2022-07-17T03:38:10;11.20;99.90
37324;DHT22;23205;49.986;18.950;2022-07-17T03:43:11;11.20;99.90
37324;DHT22;23205;49.986;18.950;2022-07-17T03:48:13;11.30;99.90
37324;DHT22;23205;49.986;18.950;2022-07-17T03:53:14;11.30;99.90
37324;DHT22;23205;49.986;18.950;2022-07-17T03:58:15;11.30;99.90
37324;DHT22;23205;49.986;18.950;2022-07-17T04:03:16;11.40;99.90
37324;DHT22;23205;49.986;18.950;2022-07-17T04:08:17;11.50;99.90
37324;DHT22;23205;49.986;18.950;2022-07-17T04:13:18;11.60;99.90
37324;DHT22;23205;49.986;18.950;2022-07-17T04:18:21;11.70;99.90
37324;DHT22;23205;49.986;18.950;2022-07-17T04:23:22;11.80;99.90
37324;DHT22;23205;49.986;18.950;2022-07-17T04:28:23;11.90;99.90
37324;DHT22;23205;49.986;18.950;2022-07-17T04:33:24;12.00;99.90
37324;DHT22;23205;49.986;18.950;2022-07-17T04:38:25;12.10;99.90
37324;DHT22;23205;49.986;18.950;2022-07-17T04:43:26;12.20;99.90
37324;DHT22;23205;49.986;18.950;2022-07-17T04:48:27;12.40;99.90
37324;DHT22;23205;49.986;18.950;2022-07-17T04:53:27;12.40;99.90
37324;DHT22;23205;49.986;18.950;2022-07-17T04:58:29;12.60;99.90
37324;DHT22;23205;49.986;18.950;2022-07-17T05:03:30;12.80;99.90
37324;DHT22;23205;49.986;18.950;2022-07-17T05:08:31;12.80;99.90
37324;DHT22;23205;49.986;18.950;2022-07-17T05:13:31;12.90;99.90
37324;DHT22;23205;49.986;18.950;2022-07-17T05:18:32;13.10;99.90
37324;DHT22;23205;49.986;18.950;2022-07-17T05:23:33;13.10;99.90
37324;DHT22;23205;49.986;18.950;2022-07-17T05:28:34;13.30;99.90
37324;DHT22;23205;49.986;18.950;2022-07-17T05:33:35;13.40;99.90
37324;DHT22;23205;49.986;18.950;2022-07-17T05:38:36;13.60;99.90
37324;DHT22;23205;49.986;18.950;2022-07-17T05:43:38;13.80;99.90
37324;DHT22;23205;49.986;18.950;2022-07-17T05:48:39;14.00;99.90
37324;DHT22;23205;49.986;18.950;2022-07-17T05:53:40;14.20;99.90
37324;DHT22;23205;49.986;18.950;2022-07-17T05:58:40;14.30;99.90
37324;DHT22;23205;49.986;18.950;2022-07-17T06:03:41;14.50;99.90
37324;DHT22;23205;49.986;18.950;2022-07-17T06:08:42;14.60;99.90
37324;DHT22;23205;49.986;18.950;2022-07-17T06:13:43;14.70;99.90
37324;DHT22;23205;49.986;18.950;2022-07-17T06:18:44;15.00;99.90
37324;DHT22;23205;49.986;18.950;2022-07-17T06:23:44;15.10;99.90
37324;DHT22;23205;49.986;18.950;2022-07-17T06:28:45;15.30;99.90
37324;DHT22;23205;49.986;18.950;2022-07-17T06:33:46;15.40;99.90
37324;DHT22;23205;49.986;18.950;2022-07-17T06:38:47;15.60;99.90
37324;DHT22;23205;49.986;18.950;2022-07-17T06:43:48;15.90;99.90
37324;DHT22;23205;49.986;18.950;2022-07-17T06:48:48;16.10;99.90
37324;DHT22;23205;49.986;18.950;2022-07-17T06:53:52;16.20;99.90
37324;DHT22;23205;49.986;18.950;2022-07-17T06:58:52;16.30;99.90
37324;DHT22;23205;49.986;18.950;2022-07-17T07:03:53;16.50;99.90
37324;DHT22;23205;49.986;18.950;2022-07-17T07:08:54;16.50;99.90
37324;DHT22;23205;49.986;18.950;2022-07-17T07:13:55;16.70;99.90
37324;DHT22;23205;49.986;18.950;2022-07-17T07:18:56;16.80;99.90
37324;DHT22;23205;49.986;18.950;2022-07-17T07:23:57;16.90;99.90
37324;DHT22;23205;49.986;18.950;2022-07-17T07:28:58;17.00;99.90
37324;DHT22;23205;49.986;18.950;2022-07-17T07:33:58;17.10;99.90
37324;DHT22;23205;49.986;18.950;2022-07-17T07:38:59;17.30;99.90
37324;DHT22;23205;49.986;18.950;2022-07-17T07:44:00;17.30;99.90
37324;DHT22;23205;49.986;18.950;2022-07-17T07:49:01;17.40;99.90
37324;DHT22;23205;49.986;18.950;2022-07-17T07:54:02;17.30;99.90
37324;DHT22;23205;49.986;18.950;2022-07-17T07:59:03;17.60;99.90
37324;DHT22;23205;49.986;18.950;2022-07-17T08:04:05;17.90;99.20
37324;DHT22;23205;49.986;18.950;2022-07-17T08:09:05;18.00;96.40
37324;DHT22;23205;49.986;18.950;2022-07-17T08:14:06;18.10;95.70
37324;DHT22;23205;49.986;18.950;2022-07-17T08:19:07;18.10;94.30
37324;DHT22;23205;49.986;18.950;2022-07-17T08:24:08;18.10;94.90
37324;DHT22;23205;49.986;18.950;2022-07-17T08:29:09;18.50;93.70
37324;DHT22;23205;49.986;18.950;2022-07-17T08:34:10;18.60;94.60
37324;DHT22;23205;49.986;18.950;2022-07-17T08:39:11;18.90;92.90
37324;DHT22;23205;49.986;18.950;2022-07-17T08:44:12;18.80;86.30
37324;DHT22;23205;49.986;18.950;2022-07-17T08:49:14;19.10;87.20
37324;DHT22;23205;49.986;18.950;2022-07-17T08:54:20;19.30;85.30
37324;DHT22;23205;49.986;18.950;2022-07-17T08:59:23;19.60;89.40
37324;DHT22;23205;49.986;18.950;2022-07-17T09:04:24;19.50;81.10
37324;DHT22;23205;49.986;18.950;2022-07-17T09:09:25;19.70;81.30
37324;DHT22;23205;49.986;18.950;2022-07-17T09:14:41;19.70;79.50
37324;DHT22;23205;49.986;18.950;2022-07-17T09:19:44;19.40;79.80
37324;DHT22;23205;49.986;18.950;2022-07-17T09:24:54;19.80;80.60
37324;DHT22;23205;49.986;18.950;2022-07-17T09:29:59;20.40;80.10
37324;DHT22;23205;49.986;18.950;2022-07-17T09:35:02;20.40;77.30
37324;DHT22;23205;49.986;18.950;2022-07-17T09:40:11;20.70;77.50
37324;DHT22;23205;49.986;18.950;2022-07-17T09:45:33;20.80;78.30
37324;DHT22;23205;49.986;18.950;2022-07-17T09:50:35;20.70;74.50
37324;DHT22;23205;49.986;18.950;2022-07-17T09:55:36;21.00;76.60
37324;DHT22;23205;49.986;18.950;2022-07-17T10:00:38;21.70;74.80
37324;DHT22;23205;49.986;18.950;2022-07-17T10:05:40;22.10;73.70
37324;DHT22;23205;49.986;18.950;2022-07-17T10:10:41;21.50;73.10
37324;DHT22;23205;49.986;18.950;2022-07-17T10:15:42;21.20;74.40
37324;DHT22;23205;49.986;18.950;2022-07-17T10:20:43;21.80;71.60
37324;DHT22;23205;49.986;18.950;2022-07-17T10:25:44;21.80;69.50
37324;DHT22;23205;49.986;18.950;2022-07-17T10:30:45;21.40;70.50
37324;DHT22;23205;49.986;18.950;2022-07-17T10:35:48;21.20;71.60
37324;DHT22;23205;49.986;18.950;2022-07-17T10:41:00;21.70;74.70
37324;DHT22;23205;49.986;18.950;2022-07-17T10:46:01;22.50;67.90
37324;DHT22;23205;49.986;18.950;2022-07-17T10:51:02;22.50;68.10
37324;DHT22;23205;49.986;18.950;2022-07-17T10:56:05;22.10;68.00
37324;DHT22;23205;49.986;18.950;2022-07-17T11:06:17;23.10;63.40
37324;DHT22;23205;49.986;18.950;2022-07-17T11:11:20;22.30;65.10
37324;DHT22;23205;49.986;18.950;2022-07-17T11:16:29;22.70;66.00
37324;DHT22;23205;49.986;18.950;2022-07-17T11:21:30;24.30;63.30
37324;DHT22;23205;49.986;18.950;2022-07-17T11:26:32;24.80;58.70
37324;DHT22;23205;49.986;18.950;2022-07-17T11:31:33;24.60;59.70
37324;DHT22;23205;49.986;18.950;2022-07-17T11:36:39;24.20;61.50
37324;DHT22;23205;49.986;18.950;2022-07-17T11:41:45;23.70;60.00
37324;DHT22;23205;49.986;18.950;2022-07-17T11:46:49;23.20;61.60
37324;DHT22;23205;49.986;18.950;2022-07-17T11:51:51;23.20;59.30
37324;DHT22;23205;49.986;18.950;2022-07-17T11:56:57;23.30;61.10
37324;DHT22;23205;49.986;18.950;2022-07-17T12:02:14;23.00;60.70
37324;DHT22;23205;49.986;18.950;2022-07-17T12:07:15;23.30;62.80
37324;DHT22;23205;49.986;18.950;2022-07-17T12:12:26;25.00;59.30
37324;DHT22;23205;49.986;18.950;2022-07-17T12:17:39;25.30;59.10
37324;DHT22;23205;49.986;18.950;2022-07-17T12:22:47;24.60;58.00
37324;DHT22;23205;49.986;18.950;2022-07-17T12:27:48;24.80;57.90
37324;DHT22;23205;49.986;18.950;2022-07-17T12:32:49;24.30;57.60
37324;DHT22;23205;49.986;18.950;2022-07-17T12:37:50;24.10;60.20
37324;DHT22;23205;49.986;18.950;2022-07-17T12:42:51;24.10;59.50
37324;DHT22;23205;49.986;18.950;2022-07-17T12:47:52;24.10;58.70
37324;DHT22;23205;49.986;18.950;2022-07-17T12:52:53;24.50;57.90
37324;DHT22;23205;49.986;18.950;2022-07-17T12:57:53;24.70;59.20
37324;DHT22;23205;49.986;18.950;2022-07-17T13:02:55;24.10;58.00
37324;DHT22;23205;49.986;18.950;2022-07-17T13:07:56;24.70;60.70
37324;DHT22;23205;49.986;18.950;2022-07-17T13:12:56;24.90;59.40
37324;DHT22;23205;49.986;18.950;2022-07-17T13:17:57;25.20;55.60
37324;DHT22;23205;49.986;18.950;2022-07-17T13:22:58;25.40;53.70
37324;DHT22;23205;49.986;18.950;2022-07-17T13:27:59;25.50;55.00
37324;DHT22;23205;49.986;18.950;2022-07-17T13:33:00;25.00;57.50
37324;DHT22;23205;49.986;18.950;2022-07-17T13:38:02;25.20;58.30
37324;DHT22;23205;49.986;18.950;2022-07-17T13:43:04;25.60;56.60
37324;DHT22;23205;49.986;18.950;2022-07-17T13:48:05;25.60;54.30
37324;DHT22;23205;49.986;18.950;2022-07-17T13:53:06;24.70;54.30
37324;DHT22;23205;49.986;18.950;2022-07-17T13:58:07;24.60;55.00
37324;DHT22;23205;49.986;18.950;2022-07-17T14:03:09;23.90;55.60
37324;DHT22;23205;49.986;18.950;2022-07-17T14:08:11;24.20;57.20
37324;DHT22;23205;49.986;18.950;2022-07-17T14:13:11;24.40;56.60
37324;DHT22;23205;49.986;18.950;2022-07-17T14:18:12;24.20;57.40
37324;DHT22;23205;49.986;18.950;2022-07-17T14:23:13;23.90;58.20
37324;DHT22;23205;49.986;18.950;2022-07-17T14:28:14;24.10;58.30
37324;DHT22;23205;49.986;18.950;2022-07-17T14:33:15;24.00;56.80
37324;DHT22;23205;49.986;18.950;2022-07-17T14:38:16;23.90;57.30
37324;DHT22;23205;49.986;18.950;2022-07-17T14:43:17;23.90;58.60
37324;DHT22;23205;49.986;18.950;2022-07-17T14:48:18;23.90;57.50
37324;DHT22;23205;49.986;18.950;2022-07-17T14:53:19;23.70;58.30
37324;DHT22;23205;49.986;18.950;2022-07-17T14:58:20;23.30;56.80
37324;DHT22;23205;49.986;18.950;2022-07-17T15:03:21;23.50;59.70
37324;DHT22;23205;49.986;18.950;2022-07-17T15:08:22;23.30;59.80
37324;DHT22;23205;49.986;18.950;2022-07-17T15:13:23;23.20;60.30
37324;DHT22;23205;49.986;18.950;2022-07-17T15:18:23;23.00;60.40
37324;DHT22;23205;49.986;18.950;2022-07-17T15:23:24;23.00;61.20
37324;DHT22;23205;49.986;18.950;2022-07-17T15:28:25;23.20;60.60
37324;DHT22;23205;49.986;18.950;2022-07-17T15:33:26;23.20;60.00
37324;DHT22;23205;49.986;18.950;2022-07-17T15:38:27;23.10;60.60
37324;DHT22;23205;49.986;18.950;2022-07-17T15:43:28;23.20;60.90
37324;DHT22;23205;49.986;18.950;2022-07-17T15:48:28;23.00;60.10
37324;DHT22;23205;49.986;18.950;2022-07-17T15:53:29;23.00;61.00
37324;DHT22;23205;49.986;18.950;2022-07-17T15:58:30;22.80;61.30
37324;DHT22;23205;49.986;18.950;2022-07-17T16:03:31;22.80;62.30
37324;DHT22;23205;49.986;18.950;2022-07-17T16:08:32;22.50;62.10
37324;DHT22;23205;49.986;18.950;2022-07-17T16:13:33;22.30;62.40
37324;DHT22;23205;49.986;18.950;2022-07-17T16:18:34;22.40;62.40
37324;DHT22;23205;49.986;18.950;2022-07-17T16:23:34;22.40;62.00
37324;DHT22;23205;49.986;18.950;2022-07-17T16:28:35;22.40;62.40
37324;DHT22;23205;49.986;18.950;2022-07-17T16:33:36;22.20;61.90
37324;DHT22;23205;49.986;18.950;2022-07-17T16:38:37;22.20;62.60
37324;DHT22;23205;49.986;18.950;2022-07-17T16:43:38;22.10;62.70
37324;DHT22;23205;49.986;18.950;2022-07-17T16:48:39;22.00;62.50
37324;DHT22;23205;49.986;18.950;2022-07-17T16:53:40;21.80;64.20
37324;DHT22;23205;49.986;18.950;2022-07-17T16:58:40;21.80;65.50
37324;DHT22;23205;49.986;18.950;2022-07-17T17:03:41;21.60;65.50
37324;DHT22;23205;49.986;18.950;2022-07-17T17:08:43;21.50;66.00
37324;DHT22;23205;49.986;18.950;2022-07-17T17:13:44;21.30;66.50
37324;DHT22;23205;49.986;18.950;2022-07-17T17:18:45;21.30;68.20
37324;DHT22;23205;49.986;18.950;2022-07-17T17:23:46;21.20;68.20
37324;DHT22;23205;49.986;18.950;2022-07-17T17:28:47;21.20;68.10
37324;DHT22;23205;49.986;18.950;2022-07-17T17:33:48;21.10;68.70
37324;DHT22;23205;49.986;18.950;2022-07-17T17:38:49;21.00;69.20
37324;DHT22;23205;49.986;18.950;2022-07-17T17:43:50;20.90;70.30
37324;DHT22;23205;49.986;18.950;2022-07-17T17:48:51;20.80;70.70
37324;DHT22;23205;49.986;18.950;2022-07-17T17:53:51;20.70;71.40
37324;DHT22;23205;49.986;18.950;2022-07-17T17:58:52;20.50;71.60
37324;DHT22;23205;49.986;18.950;2022-07-17T18:03:53;20.30;71.70
37324;DHT22;23205;49.986;18.950;2022-07-17T18:08:54;20.20;72.70
37324;DHT22;23205;49.986;18.950;2022-07-17T18:13:55;20.10;73.30
37324;DHT22;23205;49.986;18.950;2022-07-17T18:18:56;20.00;73.80
37324;DHT22;23205;49.986;18.950;2022-07-17T18:23:57;19.90;74.70
37324;DHT22;23205;49.986;18.950;2022-07-17T18:28:58;19.70;76.10
37324;DHT22;23205;49.986;18.950;2022-07-17T18:33:59;19.70;77.20
37324;DHT22;23205;49.986;18.950;2022-07-17T18:39:00;19.60;78.00
37324;DHT22;23205;49.986;18.950;2022-07-17T18:44:01;19.40;79.10
37324;DHT22;23205;49.986;18.950;2022-07-17T18:49:02;19.40;79.50
37324;DHT22;23205;49.986;18.950;2022-07-17T18:54:03;19.20;81.60
37324;DHT22;23205;49.986;18.950;2022-07-17T18:59:04;19.10;83.80
37324;DHT22;23205;49.986;18.950;2022-07-17T19:04:05;19.10;84.80
37324;DHT22;23205;49.986;18.950;2022-07-17T19:09:06;18.90;86.60
37324;DHT22;23205;49.986;18.950;2022-07-17T19:14:07;18.80;90.00
37324;DHT22;23205;49.986;18.950;2022-07-17T19:19:10;18.50;94.70
37324;DHT22;23205;49.986;18.950;2022-07-17T19:24:11;18.20;99.90
37324;DHT22;23205;49.986;18.950;2022-07-17T19:29:12;18.00;99.90
37324;DHT22;23205;49.986;18.950;2022-07-17T19:34:13;17.80;99.90
37324;DHT22;23205;49.986;18.950;2022-07-17T19:39:14;17.80;99.90
37324;DHT22;23205;49.986;18.950;2022-07-17T19:44:15;17.70;99.90
37324;DHT22;23205;49.986;18.950;2022-07-17T19:49:16;17.60;99.90
37324;DHT22;23205;49.986;18.950;2022-07-17T19:54:17;17.50;99.90
37324;DHT22;23205;49.986;18.950;2022-07-17T19:59:18;17.30;99.90
37324;DHT22;23205;49.986;18.950;2022-07-17T20:04:19;17.30;99.90
37324;DHT22;23205;49.986;18.950;2022-07-17T20:09:20;17.10;99.90
37324;DHT22;23205;49.986;18.950;2022-07-17T20:14:21;16.90;99.90
37324;DHT22;23205;49.986;18.950;2022-07-17T20:19:22;16.80;99.90
37324;DHT22;23205;49.986;18.950;2022-07-17T20:24:23;16.50;99.90
37324;DHT22;23205;49.986;18.950;2022-07-17T20:29:24;16.40;99.90
37324;DHT22;23205;49.986;18.950;2022-07-17T20:34:25;16.30;99.90
37324;DHT22;23205;49.986;18.950;2022-07-17T20:39:25;16.20;99.90
37324;DHT22;23205;49.986;18.950;2022-07-17T20:44:26;16.00;99.90
37324;DHT22;23205;49.986;18.950;2022-07-17T20:49:27;15.80;99.90
37324;DHT22;23205;49.986;18.950;2022-07-17T20:54:28;15.70;99.90
37324;DHT22;23205;49.986;18.950;2022-07-17T20:59:29;15.70;99.90
37324;DHT22;23205;49.986;18.950;2022-07-17T21:04:30;15.60;99.90
37324;DHT22;23205;49.986;18.950;2022-07-17T21:09:30;15.50;99.90
37324;DHT22;23205;49.986;18.950;2022-07-17T21:14:31;15.30;99.90
37324;DHT22;23205;49.986;18.950;2022-07-17T21:19:32;15.20;99.90
37324;DHT22;23205;49.986;18.950;2022-07-17T21:24:33;15.00;99.90
37324;DHT22;23205;49.986;18.950;2022-07-17T21:29:34;15.00;99.90
37324;DHT22;23205;49.986;18.950;2022-07-17T21:34:34;14.80;99.90
37324;DHT22;23205;49.986;18.950;2022-07-17T21:39:35;14.80;99.90
37324;DHT22;23205;49.986;18.950;2022-07-17T21:44:36;14.70;99.90
37324;DHT22;23205;49.986;18.950;2022-07-17T21:49:37;14.70;99.90
37324;DHT22;23205;49.986;18.950;2022-07-17T21:54:38;14.60;99.90
37324;DHT22;23205;49.986;18.950;2022-07-17T21:59:39;14.40;99.90
37324;DHT22;23205;49.986;18.950;2022-07-17T22:04:40;14.40;99.90
37324;DHT22;23205;49.986;18.950;2022-07-17T22:09:41;14.30;99.90
37324;DHT22;23205;49.986;18.950;2022-07-17T22:14:43;14.10;99.90
37324;DHT22;23205;49.986;18.950;2022-07-17T22:19:44;14.10;99.90
37324;DHT22;23205;49.986;18.950;2022-07-17T22:24:45;14.00;99.90
37324;DHT22;23205;49.986;18.950;2022-07-17T22:29:46;14.00;99.90
37324;DHT22;23205;49.986;18.950;2022-07-17T22:34:47;13.90;99.90
37324;DHT22;23205;49.986;18.950;2022-07-17T22:39:48;13.90;99.90
37324;DHT22;23205;49.986;18.950;2022-07-17T22:44:49;13.80;99.90
37324;DHT22;23205;49.986;18.950;2022-07-17T22:49:50;13.80;99.90
37324;DHT22;23205;49.986;18.950;2022-07-17T22:54:50;13.60;99.90
37324;DHT22;23205;49.986;18.950;2022-07-17T22:59:51;13.70;99.90
37324;DHT22;23205;49.986;18.950;2022-07-17T23:04:52;13.60;99.90
37324;DHT22;23205;49.986;18.950;2022-07-17T23:09:54;13.60;99.90
37324;DHT22;23205;49.986;18.950;2022-07-17T23:14:54;13.50;99.90
37324;DHT22;23205;49.986;18.950;2022-07-17T23:19:55;13.50;99.90
37324;DHT22;23205;49.986;18.950;2022-07-17T23:24:56;13.60;99.90
37324;DHT22;23205;49.986;18.950;2022-07-17T23:29:57;13.50;99.90
37324;DHT22;23205;49.986;18.950;2022-07-17T23:35:00;13.50;99.90
37324;DHT22;23205;49.986;18.950;2022-07-17T23:40:01;13.60;99.90
37324;DHT22;23205;49.986;18.950;2022-07-17T23:45:03;13.60;99.90
37324;DHT22;23205;49.986;18.950;2022-07-17T23:50:05;13.50;99.90
37324;DHT22;23205;49.986;18.950;2022-07-17T23:55:07;13.50;99.90
